Red Fork, Arkansas
Current Conditions -  °F | °C
As of 12:55 PM on Sunday 23 Nov 2014 (Local Time) from KRNV Reporting Station
Light Rain Light Rain  
Wind Chill: 63°   Ceiling: 1500
Heat Index: 63°   Visibility: 3mi
Dew Point: 63°   Wind: 20mph
Humidity: 97%   Direction: 170°S
Pressure: 29.32"   Gusts: 33mph
Location:  33.8911°N, 91.2569°W
Report Text: KRNV 231855Z AUTO 17017G29KT 3SM -RA BKN015 OVC020 17/17 A2932 RMK AO2 P0002 T01740170
Loading
Personal Weather Stations






























Interactive Weather Map New forecast layout! Learn more

10-Day Weather Forecast

Advertisements
Track Severe Weather on mobile